sensor_id;sensor_type;location;lat;lon;timestamp;pressure;altitude;pressure_sealevel;temperature;humidity
23016;BME280;11674;52.428;13.584;2023-11-22T00:04:40;102275.66;;;-1.02;84.90
23016;BME280;11674;52.428;13.584;2023-11-22T00:09:47;102264.28;;;-1.06;84.71
23016;BME280;11674;52.428;13.584;2023-11-22T00:14:54;102271.44;;;-1.05;84.69
23016;BME280;11674;52.428;13.584;2023-11-22T00:20:01;102281.94;;;-1.08;84.68
23016;BME280;11674;52.428;13.584;2023-11-22T00:25:08;102301.75;;;-1.06;84.73
23016;BME280;11674;52.428;13.584;2023-11-22T00:30:15;102323.66;;;-1.06;84.82
23016;BME280;11674;52.428;13.584;2023-11-22T00:35:22;102326.66;;;-1.01;85.08
23016;BME280;11674;52.428;13.584;2023-11-22T00:40:29;102335.34;;;-0.91;84.92
23016;BME280;11674;52.428;13.584;2023-11-22T00:45:36;102331.81;;;-0.85;84.88
23016;BME280;11674;52.428;13.584;2023-11-22T00:50:43;102326.34;;;-0.85;84.89
23016;BME280;11674;52.428;13.584;2023-11-22T00:55:52;102343.66;;;-0.78;84.86
23016;BME280;11674;52.428;13.584;2023-11-22T01:00:59;102341.38;;;-0.75;84.88
23016;BME280;11674;52.428;13.584;2023-11-22T01:06:06;102342.47;;;-0.69;84.83
23016;BME280;11674;52.428;13.584;2023-11-22T01:11:13;102340.75;;;-0.70;84.69
23016;BME280;11674;52.428;13.584;2023-11-22T01:16:20;102353.84;;;-0.72;84.77
23016;BME280;11674;52.428;13.584;2023-11-22T01:21:27;102360.59;;;-0.68;84.76
23016;BME280;11674;52.428;13.584;2023-11-22T01:26:34;102349.88;;;-0.63;84.87
23016;BME280;11674;52.428;13.584;2023-11-22T01:31:41;102365.72;;;-0.59;84.89
23016;BME280;11674;52.428;13.584;2023-11-22T01:36:51;102354.75;;;-0.59;84.88
23016;BME280;11674;52.428;13.584;2023-11-22T01:41:58;102355.34;;;-0.63;84.47
23016;BME280;11674;52.428;13.584;2023-11-22T01:47:05;102352.59;;;-0.63;84.75
23016;BME280;11674;52.428;13.584;2023-11-22T01:52:13;102365.25;;;-0.62;84.53
23016;BME280;11674;52.428;13.584;2023-11-22T01:57:20;102361.63;;;-0.69;84.21
23016;BME280;11674;52.428;13.584;2023-11-22T02:02:27;102362.38;;;-0.82;84.26
23016;BME280;11674;52.428;13.584;2023-11-22T02:07:34;102375.81;;;-0.93;84.04
23016;BME280;11674;52.428;13.584;2023-11-22T02:12:43;102374.00;;;-1.07;84.16
23016;BME280;11674;52.428;13.584;2023-11-22T02:17:50;102379.38;;;-1.20;83.98
23016;BME280;11674;52.428;13.584;2023-11-22T02:23:01;102381.59;;;-1.30;84.19
23016;BME280;11674;52.428;13.584;2023-11-22T02:28:08;102392.66;;;-1.38;84.16
23016;BME280;11674;52.428;13.584;2023-11-22T02:33:15;102389.84;;;-1.45;84.51
23016;BME280;11674;52.428;13.584;2023-11-22T02:38:22;102400.09;;;-1.53;84.20
23016;BME280;11674;52.428;13.584;2023-11-22T02:43:30;102422.94;;;-1.61;84.11
23016;BME280;11674;52.428;13.584;2023-11-22T02:48:39;102419.13;;;-1.66;84.40
23016;BME280;11674;52.428;13.584;2023-11-22T02:53:47;102414.59;;;-1.74;84.25
23016;BME280;11674;52.428;13.584;2023-11-22T02:58:54;102433.75;;;-1.74;84.38
23016;BME280;11674;52.428;13.584;2023-11-22T03:04:07;102441.03;;;-1.81;84.09
23016;BME280;11674;52.428;13.584;2023-11-22T03:09:17;102455.66;;;-1.88;84.12
23016;BME280;11674;52.428;13.584;2023-11-22T03:14:24;102483.38;;;-1.91;84.23
23016;BME280;11674;52.428;13.584;2023-11-22T03:19:31;102477.00;;;-1.98;84.13
23016;BME280;11674;52.428;13.584;2023-11-22T03:24:57;102502.34;;;-2.04;84.27
23016;BME280;11674;52.428;13.584;2023-11-22T03:30:08;102497.25;;;-2.07;84.09
23016;BME280;11674;52.428;13.584;2023-11-22T03:35:15;102490.66;;;-2.13;84.29
23016;BME280;11674;52.428;13.584;2023-11-22T03:40:22;102517.31;;;-2.15;84.00
23016;BME280;11674;52.428;13.584;2023-11-22T03:45:29;102530.69;;;-2.20;84.10
23016;BME280;11674;52.428;13.584;2023-11-22T03:50:36;102542.78;;;-2.29;84.06
23016;BME280;11674;52.428;13.584;2023-11-22T03:55:43;102522.50;;;-2.34;83.94
23016;BME280;11674;52.428;13.584;2023-11-22T04:00:53;102516.91;;;-2.41;83.91
23016;BME280;11674;52.428;13.584;2023-11-22T04:06:00;102504.00;;;-2.47;83.82
23016;BME280;11674;52.428;13.584;2023-11-22T04:11:10;102504.41;;;-2.50;83.86
23016;BME280;11674;52.428;13.584;2023-11-22T04:16:27;102507.88;;;-2.56;83.93
23016;BME280;11674;52.428;13.584;2023-11-22T04:21:46;102521.78;;;-2.65;83.84
23016;BME280;11674;52.428;13.584;2023-11-22T04:26:55;102540.41;;;-2.69;84.03
23016;BME280;11674;52.428;13.584;2023-11-22T04:32:02;102546.91;;;-2.70;84.05
23016;BME280;11674;52.428;13.584;2023-11-22T04:37:09;102555.47;;;-2.73;83.86
23016;BME280;11674;52.428;13.584;2023-11-22T04:42:16;102551.03;;;-2.74;83.93
23016;BME280;11674;52.428;13.584;2023-11-22T04:47:23;102555.38;;;-2.79;83.71
23016;BME280;11674;52.428;13.584;2023-11-22T04:52:30;102573.13;;;-2.83;83.77
23016;BME280;11674;52.428;13.584;2023-11-22T04:57:39;102566.16;;;-2.86;83.92
23016;BME280;11674;52.428;13.584;2023-11-22T05:02:46;102587.34;;;-2.88;84.01
23016;BME280;11674;52.428;13.584;2023-11-22T05:07:53;102601.81;;;-2.87;84.15
23016;BME280;11674;52.428;13.584;2023-11-22T05:13:00;102610.88;;;-2.87;84.06
23016;BME280;11674;52.428;13.584;2023-11-22T05:18:07;102625.75;;;-2.89;84.03
23016;BME280;11674;52.428;13.584;2023-11-22T05:23:14;102634.75;;;-2.89;83.83
23016;BME280;11674;52.428;13.584;2023-11-22T05:28:22;102624.94;;;-2.98;84.02
23016;BME280;11674;52.428;13.584;2023-11-22T05:33:29;102624.56;;;-2.95;84.00
23016;BME280;11674;52.428;13.584;2023-11-22T05:38:36;102633.47;;;-3.01;83.61
23016;BME280;11674;52.428;13.584;2023-11-22T05:43:43;102643.91;;;-3.04;83.91
23016;BME280;11674;52.428;13.584;2023-11-22T05:48:54;102651.63;;;-3.08;83.69
23016;BME280;11674;52.428;13.584;2023-11-22T05:54:01;102646.50;;;-3.11;83.77
23016;BME280;11674;52.428;13.584;2023-11-22T05:59:08;102646.19;;;-3.16;83.77
23016;BME280;11674;52.428;13.584;2023-11-22T06:04:15;102656.59;;;-3.19;83.91
23016;BME280;11674;52.428;13.584;2023-11-22T06:09:22;102664.13;;;-3.21;83.96
23016;BME280;11674;52.428;13.584;2023-11-22T06:14:29;102675.88;;;-3.21;84.05
23016;BME280;11674;52.428;13.584;2023-11-22T06:19:36;102674.00;;;-3.20;83.97
23016;BME280;11674;52.428;13.584;2023-11-22T06:24:43;102661.41;;;-3.21;83.70
23016;BME280;11674;52.428;13.584;2023-11-22T06:29:50;102649.31;;;-3.27;83.73
23016;BME280;11674;52.428;13.584;2023-11-22T06:34:57;102654.28;;;-3.30;83.73
23016;BME280;11674;52.428;13.584;2023-11-22T06:40:04;102677.31;;;-3.33;83.65
23016;BME280;11674;52.428;13.584;2023-11-22T06:45:11;102698.47;;;-3.35;83.56
23016;BME280;11674;52.428;13.584;2023-11-22T06:50:18;102712.44;;;-3.38;83.71
23016;BME280;11674;52.428;13.584;2023-11-22T06:55:25;102733.94;;;-3.35;83.79
23016;BME280;11674;52.428;13.584;2023-11-22T07:00:32;102754.56;;;-3.32;83.82
23016;BME280;11674;52.428;13.584;2023-11-22T07:05:39;102751.13;;;-3.26;83.84
23016;BME280;11674;52.428;13.584;2023-11-22T07:10:46;102769.53;;;-3.20;83.84
23016;BME280;11674;52.428;13.584;2023-11-22T07:15:53;102769.19;;;-3.17;83.88
23016;BME280;11674;52.428;13.584;2023-11-22T07:21:00;102777.34;;;-3.09;84.13
23016;BME280;11674;52.428;13.584;2023-11-22T07:26:07;102772.03;;;-3.03;84.22
23016;BME280;11674;52.428;13.584;2023-11-22T07:31:14;102781.03;;;-2.94;84.10
23016;BME280;11674;52.428;13.584;2023-11-22T07:36:21;102766.84;;;-2.90;84.23
23016;BME280;11674;52.428;13.584;2023-11-22T07:41:28;102784.44;;;-2.84;84.24
23016;BME280;11674;52.428;13.584;2023-11-22T07:46:35;102790.56;;;-2.82;84.00
23016;BME280;11674;52.428;13.584;2023-11-22T07:51:43;102784.38;;;-2.76;84.34
23016;BME280;11674;52.428;13.584;2023-11-22T07:56:50;102782.44;;;-2.68;84.35
23016;BME280;11674;52.428;13.584;2023-11-22T08:01:57;102782.59;;;-2.61;84.13
23016;BME280;11674;52.428;13.584;2023-11-22T08:07:04;102759.19;;;-2.56;84.15
23016;BME280;11674;52.428;13.584;2023-11-22T08:12:11;102738.31;;;-2.49;84.14
23016;BME280;11674;52.428;13.584;2023-11-22T08:17:18;102735.34;;;-2.39;84.24
23016;BME280;11674;52.428;13.584;2023-11-22T08:22:25;102743.84;;;-2.34;84.08
23016;BME280;11674;52.428;13.584;2023-11-22T08:27:32;102752.66;;;-2.24;84.46
23016;BME280;11674;52.428;13.584;2023-11-22T08:32:40;102753.63;;;-2.17;84.44
23016;BME280;11674;52.428;13.584;2023-11-22T08:37:47;102757.16;;;-2.09;84.42
23016;BME280;11674;52.428;13.584;2023-11-22T08:42:54;102772.47;;;-2.00;84.43
23016;BME280;11674;52.428;13.584;2023-11-22T08:48:01;102764.69;;;-1.88;84.41
23016;BME280;11674;52.428;13.584;2023-11-22T08:53:08;102768.03;;;-1.78;84.45
23016;BME280;11674;52.428;13.584;2023-11-22T08:58:15;102777.56;;;-1.74;84.31
23016;BME280;11674;52.428;13.584;2023-11-22T09:03:22;102776.84;;;-1.68;84.41
23016;BME280;11674;52.428;13.584;2023-11-22T09:08:29;102779.50;;;-1.60;84.47
23016;BME280;11674;52.428;13.584;2023-11-22T09:13:36;102786.13;;;-1.55;84.43
23016;BME280;11674;52.428;13.584;2023-11-22T09:18:43;102797.16;;;-1.48;84.48
23016;BME280;11674;52.428;13.584;2023-11-22T09:23:50;102791.72;;;-1.34;84.54
23016;BME280;11674;52.428;13.584;2023-11-22T09:28:57;102785.81;;;-1.23;84.44
23016;BME280;11674;52.428;13.584;2023-11-22T09:34:04;102781.09;;;-1.14;84.44
23016;BME280;11674;52.428;13.584;2023-11-22T09:39:11;102763.44;;;-1.12;84.47
23016;BME280;11674;52.428;13.584;2023-11-22T09:44:18;102748.59;;;-1.03;84.83
23016;BME280;11674;52.428;13.584;2023-11-22T09:49:29;102748.78;;;-0.90;85.04
23016;BME280;11674;52.428;13.584;2023-11-22T09:54:37;102737.50;;;-0.66;84.89
23016;BME280;11674;52.428;13.584;2023-11-22T09:59:44;102731.72;;;-0.56;84.61
23016;BME280;11674;52.428;13.584;2023-11-22T10:04:51;102723.72;;;-0.37;84.68
23016;BME280;11674;52.428;13.584;2023-11-22T10:09:58;102744.81;;;-0.16;83.95
23016;BME280;11674;52.428;13.584;2023-11-22T10:15:16;102772.91;;;0.07;84.66
23016;BME280;11674;52.428;13.584;2023-11-22T10:20:39;102782.19;;;0.27;84.25
23016;BME280;11674;52.428;13.584;2023-11-22T10:25:48;102765.38;;;0.36;84.47
23016;BME280;11674;52.428;13.584;2023-11-22T10:30:55;102775.81;;;0.47;84.70
23016;BME280;11674;52.428;13.584;2023-11-22T10:36:06;102783.31;;;0.60;84.89
23016;BME280;11674;52.428;13.584;2023-11-22T10:41:14;102782.34;;;0.67;84.58
23016;BME280;11674;52.428;13.584;2023-11-22T10:46:21;102775.84;;;0.75;84.46
23016;BME280;11674;52.428;13.584;2023-11-22T10:51:33;102769.09;;;0.77;84.33
23016;BME280;11674;52.428;13.584;2023-11-22T10:56:43;102776.97;;;0.87;84.10
23016;BME280;11674;52.428;13.584;2023-11-22T11:01:52;102779.09;;;0.85;83.89
23016;BME280;11674;52.428;13.584;2023-11-22T11:07:00;102773.72;;;0.70;83.96
23016;BME280;11674;52.428;13.584;2023-11-22T11:12:08;102775.22;;;0.73;84.83
23016;BME280;11674;52.428;13.584;2023-11-22T11:17:15;102777.53;;;0.76;84.97
23016;BME280;11674;52.428;13.584;2023-11-22T11:22:22;102771.53;;;0.93;85.17
23016;BME280;11674;52.428;13.584;2023-11-22T11:27:36;102753.41;;;0.99;84.88
23016;BME280;11674;52.428;13.584;2023-11-22T11:32:45;102751.78;;;1.11;84.97
23016;BME280;11674;52.428;13.584;2023-11-22T11:37:59;102746.31;;;1.17;84.96
23016;BME280;11674;52.428;13.584;2023-11-22T11:43:06;102721.44;;;1.32;85.16
23016;BME280;11674;52.428;13.584;2023-11-22T11:48:14;102702.66;;;1.48;85.01
23016;BME280;11674;52.428;13.584;2023-11-22T11:53:21;102711.81;;;1.68;84.89
23016;BME280;11674;52.428;13.584;2023-11-22T11:58:28;102697.66;;;1.78;84.51
23016;BME280;11674;52.428;13.584;2023-11-22T12:03:35;102672.72;;;1.92;84.47
23016;BME280;11674;52.428;13.584;2023-11-22T12:08:43;102677.38;;;2.18;84.36
23016;BME280;11674;52.428;13.584;2023-11-22T12:13:50;102658.97;;;2.38;84.43
23016;BME280;11674;52.428;13.584;2023-11-22T12:18:57;102634.78;;;2.53;84.26
23016;BME280;11674;52.428;13.584;2023-11-22T12:24:07;102632.47;;;2.56;83.82
23016;BME280;11674;52.428;13.584;2023-11-22T12:29:14;102623.72;;;2.72;84.48
23016;BME280;11674;52.428;13.584;2023-11-22T12:34:22;102587.56;;;3.68;83.28
23016;BME280;11674;52.428;13.584;2023-11-22T12:39:29;102588.56;;;5.31;85.79
23016;BME280;11674;52.428;13.584;2023-11-22T12:44:49;102580.16;;;6.36;82.65
23016;BME280;11674;52.428;13.584;2023-11-22T12:49:56;102596.06;;;6.17;80.89
23016;BME280;11674;52.428;13.584;2023-11-22T12:55:03;102626.69;;;6.22;80.23
23016;BME280;11674;52.428;13.584;2023-11-22T13:00:13;102637.59;;;5.53;80.29
23016;BME280;11674;52.428;13.584;2023-11-22T13:05:20;102674.66;;;4.87;80.41
23016;BME280;11674;52.428;13.584;2023-11-22T13:10:27;102681.50;;;4.11;80.49
23016;BME280;11674;52.428;13.584;2023-11-22T13:15:37;102680.81;;;3.16;80.38
23016;BME280;11674;52.428;13.584;2023-11-22T13:20:43;102661.50;;;2.46;81.39
23016;BME280;11674;52.428;13.584;2023-11-22T13:25:50;102663.63;;;1.98;82.06
23016;BME280;11674;52.428;13.584;2023-11-22T13:30:57;102646.66;;;1.69;83.33
23016;BME280;11674;52.428;13.584;2023-11-22T13:36:05;102631.41;;;1.66;83.53
23016;BME280;11674;52.428;13.584;2023-11-22T13:41:11;102631.16;;;1.48;83.81
23016;BME280;11674;52.428;13.584;2023-11-22T13:46:18;102629.22;;;1.42;83.68
23016;BME280;11674;52.428;13.584;2023-11-22T13:51:25;102608.47;;;1.27;83.90
23016;BME280;11674;52.428;13.584;2023-11-22T13:56:32;102589.00;;;1.22;84.02
23016;BME280;11674;52.428;13.584;2023-11-22T14:01:39;102584.97;;;1.18;84.32
23016;BME280;11674;52.428;13.584;2023-11-22T14:06:46;102576.31;;;1.14;84.02
23016;BME280;11674;52.428;13.584;2023-11-22T14:11:53;102565.28;;;1.08;84.14
23016;BME280;11674;52.428;13.584;2023-11-22T14:17:00;102566.09;;;0.89;83.80
23016;BME280;11674;52.428;13.584;2023-11-22T14:22:07;102565.81;;;0.77;84.38
23016;BME280;11674;52.428;13.584;2023-11-22T14:27:14;102579.28;;;0.66;84.19
23016;BME280;11674;52.428;13.584;2023-11-22T14:32:21;102598.47;;;0.53;84.09
23016;BME280;11674;52.428;13.584;2023-11-22T14:37:28;102613.41;;;0.44;84.42
23016;BME280;11674;52.428;13.584;2023-11-22T14:42:35;102622.63;;;0.36;84.38
23016;BME280;11674;52.428;13.584;2023-11-22T14:47:42;102640.72;;;0.24;84.17
23016;BME280;11674;52.428;13.584;2023-11-22T14:52:49;102631.19;;;0.20;84.35
23016;BME280;11674;52.428;13.584;2023-11-22T14:57:56;102630.75;;;0.17;84.36
23016;BME280;11674;52.428;13.584;2023-11-22T15:03:03;102623.56;;;0.16;84.37
23016;BME280;11674;52.428;13.584;2023-11-22T15:08:10;102615.28;;;0.09;84.32
23016;BME280;11674;52.428;13.584;2023-11-22T15:13:17;102610.19;;;0.06;84.57
23016;BME280;11674;52.428;13.584;2023-11-22T15:18:24;102608.03;;;0.02;84.30
23016;BME280;11674;52.428;13.584;2023-11-22T15:23:31;102595.38;;;0.01;84.36
23016;BME280;11674;52.428;13.584;2023-11-22T15:28:38;102588.41;;;-0.02;84.58
23016;BME280;11674;52.428;13.584;2023-11-22T15:33:45;102578.28;;;-0.01;84.31
23016;BME280;11674;52.428;13.584;2023-11-22T15:38:52;102585.00;;;-0.04;84.36
23016;BME280;11674;52.428;13.584;2023-11-22T15:43:59;102584.13;;;-0.11;84.04
23016;BME280;11674;52.428;13.584;2023-11-22T15:49:07;102604.56;;;-0.13;84.16
23016;BME280;11674;52.428;13.584;2023-11-22T15:54:14;102606.00;;;-0.17;84.23
23016;BME280;11674;52.428;13.584;2023-11-22T15:59:21;102608.69;;;-0.24;83.91
23016;BME280;11674;52.428;13.584;2023-11-22T16:04:28;102585.66;;;-0.29;84.39
23016;BME280;11674;52.428;13.584;2023-11-22T16:09:35;102583.56;;;-0.27;84.39
23016;BME280;11674;52.428;13.584;2023-11-22T16:14:42;102582.91;;;-0.29;84.44
23016;BME280;11674;52.428;13.584;2023-11-22T16:19:49;102572.97;;;-0.30;84.31
23016;BME280;11674;52.428;13.584;2023-11-22T16:24:56;102576.31;;;-0.35;84.30
23016;BME280;11674;52.428;13.584;2023-11-22T16:30:04;102578.88;;;-0.33;84.48
23016;BME280;11674;52.428;13.584;2023-11-22T16:35:10;102567.50;;;-0.30;84.49
23016;BME280;11674;52.428;13.584;2023-11-22T16:40:17;102543.47;;;-0.28;84.64
23016;BME280;11674;52.428;13.584;2023-11-22T16:45:24;102545.81;;;-0.25;84.49
23016;BME280;11674;52.428;13.584;2023-11-22T16:50:33;102550.91;;;-0.22;84.48
23016;BME280;11674;52.428;13.584;2023-11-22T16:55:40;102546.25;;;-0.22;84.20
23016;BME280;11674;52.428;13.584;2023-11-22T17:00:47;102535.94;;;-0.20;84.53
23016;BME280;11674;52.428;13.584;2023-11-22T17:05:54;102534.69;;;-0.17;84.23
23016;BME280;11674;52.428;13.584;2023-11-22T17:11:01;102536.13;;;-0.21;84.10
23016;BME280;11674;52.428;13.584;2023-11-22T17:16:08;102532.53;;;-0.22;84.20
23016;BME280;11674;52.428;13.584;2023-11-22T17:21:15;102515.44;;;-0.24;84.17
23016;BME280;11674;52.428;13.584;2023-11-22T17:26:22;102508.47;;;-0.26;84.14
23016;BME280;11674;52.428;13.584;2023-11-22T17:31:29;102489.44;;;-0.34;84.24
23016;BME280;11674;52.428;13.584;2023-11-22T17:36:38;102458.41;;;-0.35;84.45
23016;BME280;11674;52.428;13.584;2023-11-22T17:41:45;102452.09;;;-0.35;84.42
23016;BME280;11674;52.428;13.584;2023-11-22T17:46:52;102445.78;;;-0.36;84.51
23016;BME280;11674;52.428;13.584;2023-11-22T17:51:59;102452.31;;;-0.30;84.23
23016;BME280;11674;52.428;13.584;2023-11-22T17:57:06;102446.81;;;-0.37;84.06
23016;BME280;11674;52.428;13.584;2023-11-22T18:02:13;102453.31;;;-0.44;84.16
23016;BME280;11674;52.428;13.584;2023-11-22T18:07:20;102447.63;;;-0.43;84.13
23016;BME280;11674;52.428;13.584;2023-11-22T18:12:27;102417.19;;;-0.54;84.12
23016;BME280;11674;52.428;13.584;2023-11-22T18:17:34;102407.84;;;-0.60;84.27
23016;BME280;11674;52.428;13.584;2023-11-22T18:22:41;102400.25;;;-0.64;84.31
23016;BME280;11674;52.428;13.584;2023-11-22T18:27:48;102423.78;;;-0.70;84.06
23016;BME280;11674;52.428;13.584;2023-11-22T18:32:55;102411.69;;;-0.82;84.18
23016;BME280;11674;52.428;13.584;2023-11-22T18:38:02;102398.34;;;-0.91;84.08
23016;BME280;11674;52.428;13.584;2023-11-22T18:43:22;102403.75;;;-1.04;84.03
23016;BME280;11674;52.428;13.584;2023-11-22T18:48:37;102396.97;;;-1.08;84.10
23016;BME280;11674;52.428;13.584;2023-11-22T18:53:44;102365.72;;;-1.14;84.36
23016;BME280;11674;52.428;13.584;2023-11-22T18:58:51;102358.56;;;-1.15;84.34
23016;BME280;11674;52.428;13.584;2023-11-22T19:03:58;102350.94;;;-1.19;84.30
23016;BME280;11674;52.428;13.584;2023-11-22T19:09:05;102352.19;;;-1.22;84.08
23016;BME280;11674;52.428;13.584;2023-11-22T19:14:12;102331.91;;;-1.27;84.33
23016;BME280;11674;52.428;13.584;2023-11-22T19:19:19;102332.78;;;-1.27;84.23
23016;BME280;11674;52.428;13.584;2023-11-22T19:24:26;102321.16;;;-1.29;84.28
23016;BME280;11674;52.428;13.584;2023-11-22T19:29:37;102308.72;;;-1.31;84.32
23016;BME280;11674;52.428;13.584;2023-11-22T19:34:44;102288.97;;;-1.27;84.50
23016;BME280;11674;52.428;13.584;2023-11-22T19:39:51;102270.66;;;-1.26;84.29
23016;BME280;11674;52.428;13.584;2023-11-22T19:44:58;102256.72;;;-1.31;84.00
23016;BME280;11674;52.428;13.584;2023-11-22T19:50:06;102248.66;;;-1.39;84.15
23016;BME280;11674;52.428;13.584;2023-11-22T19:55:13;102256.63;;;-1.44;83.89
23016;BME280;11674;52.428;13.584;2023-11-22T20:00:20;102244.34;;;-1.55;84.02
23016;BME280;11674;52.428;13.584;2023-11-22T20:05:27;102245.19;;;-1.54;84.36
23016;BME280;11674;52.428;13.584;2023-11-22T20:10:34;102244.34;;;-1.55;84.03
23016;BME280;11674;52.428;13.584;2023-11-22T20:15:41;102220.03;;;-1.64;84.15
23016;BME280;11674;52.428;13.584;2023-11-22T20:20:48;102221.72;;;-1.63;84.40
23016;BME280;11674;52.428;13.584;2023-11-22T20:25:55;102225.97;;;-1.61;84.23
23016;BME280;11674;52.428;13.584;2023-11-22T20:31:02;102216.06;;;-1.62;84.37
23016;BME280;11674;52.428;13.584;2023-11-22T20:36:12;102210.03;;;-1.57;84.43
23016;BME280;11674;52.428;13.584;2023-11-22T20:41:20;102202.06;;;-1.52;84.38
23016;BME280;11674;52.428;13.584;2023-11-22T20:46:27;102200.59;;;-1.48;84.52
23016;BME280;11674;52.428;13.584;2023-11-22T20:51:34;102177.50;;;-1.39;84.68
23016;BME280;11674;52.428;13.584;2023-11-22T20:56:41;102170.16;;;-1.39;84.20
23016;BME280;11674;52.428;13.584;2023-11-22T21:01:48;102166.38;;;-1.38;84.53
23016;BME280;11674;52.428;13.584;2023-11-22T21:06:55;102156.25;;;-1.37;84.47
23016;BME280;11674;52.428;13.584;2023-11-22T21:12:03;102130.38;;;-1.35;84.39
23016;BME280;11674;52.428;13.584;2023-11-22T21:17:10;102125.34;;;-1.31;84.69
23016;BME280;11674;52.428;13.584;2023-11-22T21:22:17;102105.09;;;-1.37;84.26
23016;BME280;11674;52.428;13.584;2023-11-22T21:27:25;102082.34;;;-1.37;84.46
23016;BME280;11674;52.428;13.584;2023-11-22T21:32:31;102058.78;;;-1.38;84.47
23016;BME280;11674;52.428;13.584;2023-11-22T21:37:38;102057.53;;;-1.36;84.43
23016;BME280;11674;52.428;13.584;2023-11-22T21:42:46;102049.31;;;-1.36;84.38
23016;BME280;11674;52.428;13.584;2023-11-22T21:47:54;102055.22;;;-1.32;84.66
23016;BME280;11674;52.428;13.584;2023-11-22T21:53:00;102046.63;;;-1.29;84.72
23016;BME280;11674;52.428;13.584;2023-11-22T21:58:10;102048.69;;;-1.31;84.46
23016;BME280;11674;52.428;13.584;2023-11-22T22:03:18;102040.47;;;-1.31;84.54
23016;BME280;11674;52.428;13.584;2023-11-22T22:08:33;102048.50;;;-1.30;84.53
23016;BME280;11674;52.428;13.584;2023-11-22T22:13:46;102019.25;;;-1.29;84.74
23016;BME280;11674;52.428;13.584;2023-11-22T22:18:52;101991.69;;;-1.28;84.70
23016;BME280;11674;52.428;13.584;2023-11-22T22:23:59;101987.44;;;-1.24;84.72
23016;BME280;11674;52.428;13.584;2023-11-22T22:29:16;101978.63;;;-1.13;84.79
23016;BME280;11674;52.428;13.584;2023-11-22T22:34:26;101985.38;;;-1.09;84.69
23016;BME280;11674;52.428;13.584;2023-11-22T22:39:36;101960.31;;;-0.99;85.04
23016;BME280;11674;52.428;13.584;2023-11-22T22:44:43;101940.13;;;-0.85;85.01
23016;BME280;11674;52.428;13.584;2023-11-22T22:49:50;101930.03;;;-0.85;84.72
23016;BME280;11674;52.428;13.584;2023-11-22T22:54:58;101900.09;;;-0.86;84.63
23016;BME280;11674;52.428;13.584;2023-11-22T23:00:06;101892.09;;;-0.81;84.74
23016;BME280;11674;52.428;13.584;2023-11-22T23:05:18;101906.84;;;-0.82;84.73
23016;BME280;11674;52.428;13.584;2023-11-22T23:10:25;101880.94;;;-0.80;84.85
23016;BME280;11674;52.428;13.584;2023-11-22T23:15:32;101867.19;;;-0.73;84.86
23016;BME280;11674;52.428;13.584;2023-11-22T23:20:41;101847.81;;;-0.65;85.10
23016;BME280;11674;52.428;13.584;2023-11-22T23:25:48;101845.28;;;-0.60;84.59
23016;BME280;11674;52.428;13.584;2023-11-22T23:30:56;101825.03;;;-0.59;84.77
23016;BME280;11674;52.428;13.584;2023-11-22T23:36:06;101812.59;;;-0.55;84.73
23016;BME280;11674;52.428;13.584;2023-11-22T23:41:13;101814.66;;;-0.51;84.52
23016;BME280;11674;52.428;13.584;2023-11-22T23:46:20;101787.88;;;-0.49;84.94
23016;BME280;11674;52.428;13.584;2023-11-22T23:51:27;101791.88;;;-0.45;84.88
23016;BME280;11674;52.428;13.584;2023-11-22T23:56:34;101775.41;;;-0.38;84.81
